Time;durP1;ratioP1;P1;durP2;ratioP2;P2;SDS_P1;SDS_P2;PMS_P1;PMS_P2;Temp;Humidity;BMP_temperature;BMP_pressure;BME280_temperature;BME280_humidity;BME280_pressure;Samples;Min_cycle;Max_cycle;Signal;HPM_P1;HPM_P2
2023/04/22 00:01:34;;;;;;;70.97;35.00;;;12.10;99.90;;;;;;4938502;29;20062;-95
2023/04/22 00:04:01;;;;;;;78.20;37.65;;;12.00;99.90;;;;;;4940044;29;20401;-94
2023/04/22 00:06:28;;;;;;;84.43;37.08;;;12.00;99.90;;;;;;4955030;29;20421;-94
2023/04/22 00:08:55;;;;;;;79.25;37.15;;;12.00;99.90;;;;;;4955040;29;20115;-93
2023/04/22 00:11:21;;;;;;;74.55;34.75;;;12.00;99.90;;;;;;4919358;29;20036;-91
2023/04/22 00:13:48;;;;;;;79.30;37.58;;;12.00;99.90;;;;;;4919755;29;20062;-93
2023/04/22 00:16:15;;;;;;;75.97;36.55;;;11.90;99.90;;;;;;4918941;29;20028;-91
2023/04/22 00:18:42;;;;;;;85.25;38.92;;;11.80;99.90;;;;;;4919003;29;20028;-92
2023/04/22 00:21:09;;;;;;;80.10;35.45;;;11.80;99.90;;;;;;4918694;29;20024;-91
2023/04/22 00:23:36;;;;;;;91.22;37.03;;;11.80;99.90;;;;;;4918913;29;20036;-93
2023/04/22 00:26:03;;;;;;;90.38;33.95;;;11.80;99.90;;;;;;4918922;29;20397;-91
2023/04/22 00:28:29;;;;;;;90.53;33.15;;;11.70;99.90;;;;;;4918735;29;20485;-90
2023/04/22 00:30:57;;;;;;;91.03;32.45;;;11.60;99.90;;;;;;4918702;29;20111;-93
2023/04/22 00:33:24;;;;;;;82.90;30.92;;;11.60;99.90;;;;;;4918849;29;20044;-94
2023/04/22 00:35:53;;;;;;;98.55;31.08;;;11.60;99.90;;;;;;4918680;29;20056;-93
2023/04/22 00:38:20;;;;;;;105.85;31.77;;;11.60;99.90;;;;;;4920201;29;20060;-92
2023/04/22 00:40:47;;;;;;;101.35;30.30;;;11.60;99.90;;;;;;4918918;29;20076;-93
2023/04/22 00:43:15;;;;;;;100.13;30.33;;;11.60;99.90;;;;;;4918340;29;20042;-95
2023/04/22 00:45:43;;;;;;;102.90;29.77;;;11.60;99.90;;;;;;4918314;29;20024;-91
2023/04/22 00:48:11;;;;;;;101.15;29.15;;;11.70;99.90;;;;;;4918515;29;20582;-92
2023/04/22 00:50:38;;;;;;;114.97;30.85;;;11.70;99.90;;;;;;4918285;29;20060;-94
2023/04/22 00:53:05;;;;;;;118.47;29.73;;;11.70;99.90;;;;;;4934174;29;20064;-92
2023/04/22 00:55:32;;;;;;;106.80;28.55;;;11.70;99.90;;;;;;4933885;29;20064;-91
2023/04/22 00:58:02;;;;;;;108.97;29.40;;;11.70;99.90;;;;;;4933828;29;20024;-92
2023/04/22 01:00:29;;;;;;;101.07;28.02;;;11.70;99.90;;;;;;4933558;29;20052;-94
2023/04/22 01:02:57;;;;;;;87.05;26.98;;;11.70;99.90;;;;;;4933081;29;20028;-92
2023/04/22 01:05:24;;;;;;;105.20;27.35;;;11.60;99.90;;;;;;4934240;29;20036;-93
2023/04/22 01:07:51;;;;;;;78.97;25.40;;;11.60;99.90;;;;;;4933673;29;20028;-94
2023/04/22 01:10:21;;;;;;;76.15;24.13;;;11.60;99.90;;;;;;4943666;29;20370;-93
2023/04/22 01:12:48;;;;;;;122.40;25.20;;;11.60;99.90;;;;;;4936839;29;20040;-93
2023/04/22 01:15:15;;;;;;;123.72;23.95;;;11.50;99.90;;;;;;4936771;29;20119;-93
2023/04/22 01:17:42;;;;;;;85.00;23.05;;;11.40;99.90;;;;;;4936672;29;20036;-93
2023/04/22 01:20:09;;;;;;;101.45;23.10;;;11.30;99.90;;;;;;4937207;29;20059;-95
2023/04/22 01:22:40;;;;;;;106.18;24.90;;;11.20;99.90;;;;;;4937963;29;20023;-92
2023/04/22 01:25:10;;;;;;;88.25;23.33;;;11.20;99.90;;;;;;4953151;29;20047;-92
2023/04/22 01:27:37;;;;;;;102.00;25.90;;;11.20;99.90;;;;;;4936625;29;20461;-94
2023/04/22 01:30:06;;;;;;;87.05;23.33;;;11.20;99.90;;;;;;4936542;29;20023;-94
2023/04/22 01:32:33;;;;;;;144.30;27.08;;;11.30;99.90;;;;;;4937187;29;20405;-91
2023/04/22 01:35:00;;;;;;;116.78;24.88;;;11.30;99.90;;;;;;4952311;29;20389;-92
2023/04/22 01:37:28;;;;;;;181.55;28.20;;;11.30;99.90;;;;;;4952542;29;20489;-93
2023/04/22 01:39:57;;;;;;;139.80;29.80;;;11.40;99.90;;;;;;4952413;29;20397;-92
2023/04/22 01:42:24;;;;;;;171.70;29.50;;;11.40;99.90;;;;;;4936161;29;20425;-92
2023/04/22 01:44:52;;;;;;;156.10;28.10;;;11.40;99.90;;;;;;4936347;29;20028;-96
2023/04/22 01:47:18;;;;;;;112.35;28.35;;;11.40;99.90;;;;;;4952361;29;20062;-93
2023/04/22 01:49:45;;;;;;;159.05;30.10;;;11.50;99.90;;;;;;4936265;29;20394;-92
2023/04/22 01:52:12;;;;;;;79.78;23.92;;;11.50;99.90;;;;;;4936070;29;20515;-92
2023/04/22 01:54:39;;;;;;;86.20;24.75;;;11.50;99.90;;;;;;4936070;29;20551;-93
2023/04/22 01:57:10;;;;;;;100.70;26.40;;;11.60;99.90;;;;;;4936490;29;20047;-94
2023/04/22 01:59:37;;;;;;;109.30;27.70;;;11.60;99.90;;;;;;4935912;29;20043;-93
2023/04/22 02:02:04;;;;;;;145.63;28.65;;;11.70;99.90;;;;;;4936182;29;20039;-93
2023/04/22 02:04:31;;;;;;;107.78;27.73;;;11.80;99.90;;;;;;4936142;29;20033;-94
2023/04/22 02:06:58;;;;;;;108.40;27.52;;;11.90;99.90;;;;;;4952271;29;20099;-93
2023/04/22 02:09:25;;;;;;;104.05;26.92;;;11.90;99.90;;;;;;4952157;29;20027;-93
2023/04/22 02:11:51;;;;;;;96.72;28.98;;;12.00;99.90;;;;;;4937126;29;20031;-92
2023/04/22 02:14:21;;;;;;;99.88;28.67;;;12.10;99.90;;;;;;4936693;29;20038;-92
2023/04/22 02:16:47;;;;;;;106.47;29.45;;;12.10;99.90;;;;;;4936691;29;20473;-91
2023/04/22 02:19:14;;;;;;;96.75;29.25;;;12.20;99.90;;;;;;4936316;29;20040;-95
2023/04/22 02:21:40;;;;;;;95.55;29.58;;;12.20;99.90;;;;;;4936045;29;20028;-92
2023/04/22 02:24:07;;;;;;;100.65;31.27;;;12.20;99.90;;;;;;4935994;29;20039;-92
2023/04/22 02:26:34;;;;;;;96.30;28.38;;;12.30;99.90;;;;;;4951734;29;20039;-93
2023/04/22 02:29:01;;;;;;;97.40;28.05;;;12.30;99.90;;;;;;4951929;29;20036;-92
2023/04/22 02:31:28;;;;;;;100.72;27.42;;;12.30;99.90;;;;;;4935852;29;20031;-93
2023/04/22 02:33:58;;;;;;;96.75;28.85;;;12.30;99.90;;;;;;4951630;29;20046;-92
2023/04/22 02:36:26;;;;;;;92.10;26.42;;;12.30;99.90;;;;;;4935801;29;20052;-93
2023/04/22 02:38:53;;;;;;;99.25;26.67;;;12.30;99.90;;;;;;4935843;29;20437;-92
2023/04/22 02:41:20;;;;;;;89.18;23.90;;;12.20;99.90;;;;;;4935715;29;20132;-93
2023/04/22 02:43:47;;;;;;;77.25;22.98;;;12.20;99.90;;;;;;4935633;29;20059;-93
2023/04/22 02:46:17;;;;;;;121.53;24.17;;;12.10;99.90;;;;;;4935750;29;20035;-92
2023/04/22 02:48:44;;;;;;;84.88;23.13;;;12.10;99.90;;;;;;4935949;29;20027;-92
2023/04/22 02:51:10;;;;;;;90.22;24.85;;;12.10;99.90;;;;;;4926435;29;20032;-91
2023/04/22 02:53:37;;;;;;;136.57;25.25;;;12.10;99.90;;;;;;4932575;29;20047;-91
2023/04/22 02:56:04;;;;;;;101.85;22.92;;;12.10;99.90;;;;;;4934513;29;20051;-91
2023/04/22 02:58:31;;;;;;;116.45;25.27;;;12.10;99.90;;;;;;4933132;29;20036;-93
2023/04/22 03:00:57;;;;;;;118.28;23.88;;;12.10;99.90;;;;;;4932390;29;20109;-92
2023/04/22 03:03:59;;;;;;;75.88;22.45;;;12.10;99.90;;;;;;4937399;29;20032;-95
2023/04/22 03:06:25;;;;;;;194.48;28.95;;;12.10;99.90;;;;;;4935011;29;20031;-94
2023/04/22 03:08:52;;;;;;;109.25;26.90;;;12.20;99.90;;;;;;4933234;29;20024;-94
2023/04/22 03:11:26;;;;;;;273.88;34.47;;;12.20;99.90;;;;;;4935562;29;20047;-94
2023/04/22 03:14:00;;;;;;;128.48;29.70;;;12.30;99.90;;;;;;4932832;29;20095;-94
2023/04/22 03:16:27;;;;;;;133.50;31.75;;;12.30;99.90;;;;;;4916907;29;20441;-93
2023/04/22 03:18:56;;;;;;;139.18;29.50;;;12.30;99.90;;;;;;4932687;29;20041;-92
2023/04/22 03:21:24;;;;;;;196.80;31.75;;;12.30;99.90;;;;;;4932781;29;20167;-94
2023/04/22 03:23:51;;;;;;;282.33;33.00;;;12.30;99.90;;;;;;4935197;29;20055;-93
2023/04/22 03:26:18;;;;;;;184.25;31.70;;;12.30;99.90;;;;;;4935571;29;20461;-93
2023/04/22 03:28:45;;;;;;;229.77;32.60;;;12.30;99.90;;;;;;4935958;29;20020;-93
2023/04/22 03:31:12;;;;;;;197.35;30.45;;;12.40;99.90;;;;;;4936192;29;20035;-95
2023/04/22 03:33:42;;;;;;;169.95;32.47;;;12.40;99.90;;;;;;4919503;29;20036;-91
2023/04/22 03:36:18;;;;;;;167.27;32.67;;;12.40;99.90;;;;;;4935296;29;20079;-92
2023/04/22 03:38:45;;;;;;;219.77;33.15;;;12.40;99.90;;;;;;4935356;29;20039;-91
2023/04/22 03:41:12;;;;;;;147.73;32.85;;;12.40;99.90;;;;;;4950281;29;20024;-93
2023/04/22 03:43:44;;;;;;;145.88;32.75;;;12.40;99.90;;;;;;4938465;29;20082;-90
2023/04/22 03:46:11;;;;;;;137.85;32.95;;;12.40;99.90;;;;;;4938612;29;20043;-91
2023/04/22 03:48:46;;;;;;;169.30;33.05;;;12.50;99.90;;;;;;4938327;29;20028;-92
2023/04/22 03:51:23;;;;;;;155.40;28.98;;;12.50;99.90;;;;;;4938211;29;20539;-92
2023/04/22 03:53:54;;;;;;;163.23;31.85;;;12.40;99.90;;;;;;4938077;29;20067;-91
2023/04/22 03:56:23;;;;;;;332.83;36.13;;;12.40;99.90;;;;;;4938181;29;20027;-90
2023/04/22 03:58:51;;;;;;;402.42;38.92;;;12.40;99.90;;;;;;4937827;29;20031;-91
2023/04/22 04:01:18;;;;;;;464.45;42.08;;;12.50;99.90;;;;;;4938144;29;20036;-92
2023/04/22 04:03:50;;;;;;;334.65;38.38;;;12.40;99.90;;;;;;4938802;29;20078;-92
2023/04/22 04:06:19;;;;;;;257.83;33.42;;;12.40;99.90;;;;;;4938073;29;20055;-93
2023/04/22 04:08:45;;;;;;;178.40;30.08;;;12.40;99.90;;;;;;4938093;29;20028;-92
2023/04/22 04:11:12;;;;;;;366.60;38.90;;;12.40;99.90;;;;;;4937860;29;20549;-91
2023/04/22 04:13:39;;;;;;;122.93;27.95;;;12.40;99.90;;;;;;4953795;28;20040;-90
2023/04/22 04:16:26;;;;;;;323.20;36.85;;;12.40;99.90;;;;;;4940921;29;20086;-94
2023/04/22 04:19:16;;;;;;;224.75;32.47;;;12.40;99.90;;;;;;4938608;29;20556;-93
2023/04/22 04:21:54;;;;;;;;;;;;;;;;;;;;;
2023/04/22 04:24:44;;;;;;;201.70;31.30;;;12.40;99.90;;;;;;4938224;29;22057;-92
2023/04/22 04:28:20;;;;;;;;;;;;;;;;;;;;;
2023/04/22 04:34:53;;;;;;;89.60;28.60;;;12.60;99.90;;;;;;4960438;29;20074;-92
2023/04/22 04:37:28;;;;;;;121.00;30.75;;;12.80;99.90;;;;;;4940912;28;20049;-94
2023/04/22 04:40:03;;;;;;;84.32;26.73;;;12.80;99.90;;;;;;4956251;29;20135;-94
2023/04/22 04:42:43;;;;;;;85.20;27.02;;;12.90;99.90;;;;;;4955126;29;20036;-92
2023/04/22 04:45:19;;;;;;;79.78;24.33;;;13.00;99.90;;;;;;4944909;29;20051;-94
2023/04/22 04:47:54;;;;;;;71.97;22.45;;;13.00;99.90;;;;;;4956034;29;20031;-94
2023/04/22 04:50:26;;;;;;;62.83;23.50;;;13.00;99.90;;;;;;4955679;29;20043;-93
2023/04/22 04:52:56;;;;;;;45.55;21.50;;;13.10;99.90;;;;;;4955598;29;20568;-95
2023/04/22 04:55:30;;;;;;;;;;;13.20;99.90;;;;;;4946936;29;20446;-93
2023/04/22 04:57:59;;;;;;;39.15;18.00;;;13.30;99.90;;;;;;4904677;29;19911;-93
2023/04/22 05:00:26;;;;;;;33.25;17.17;;;13.60;99.90;;;;;;4920787;29;20047;-93
2023/04/22 05:03:02;;;;;;;26.38;14.45;;;14.20;99.90;;;;;;4935032;29;20040;-94
2023/04/22 05:05:41;;;;;;;21.55;12.55;;;15.10;99.90;;;;;;4934791;29;20040;-93
2023/04/22 05:08:11;;;;;;;24.23;13.63;;;15.90;99.90;;;;;;4938268;29;20060;-93
2023/04/22 05:10:43;;;;;;;23.70;13.27;;;16.60;99.90;;;;;;4947827;29;20383;-95
2023/04/22 05:13:14;;;;;;;20.73;15.90;;;17.20;99.90;;;;;;4938821;29;20035;-92
2023/04/22 05:15:46;;;;;;;22.30;20.00;;;18.00;99.90;;;;;;4939321;29;20039;-93
2023/04/22 05:18:13;;;;;;;24.67;22.17;;;18.80;99.90;;;;;;4937044;29;20035;-93
2023/04/22 05:20:41;;;;;;;27.35;24.38;;;20.00;99.90;;;;;;4924961;29;20029;-94
2023/04/22 05:23:09;;;;;;;28.23;25.48;;;20.00;99.90;;;;;;4915109;29;20028;-91
2023/04/22 05:25:35;;;;;;;26.42;23.98;;;20.60;99.90;;;;;;4915774;29;20063;-91
2023/04/22 05:28:08;;;;;;;28.33;25.30;;;21.00;99.90;;;;;;4915454;29;20028;-93
2023/04/22 05:30:50;;;;;;;28.35;25.50;;;21.30;99.90;;;;;;4916233;29;20029;-94
2023/04/22 05:33:22;;;;;;;30.33;27.40;;;21.20;99.90;;;;;;4914962;29;20047;-93
2023/04/22 05:36:11;;;;;;;29.75;26.95;;;21.30;99.90;;;;;;4915262;29;20047;-92
2023/04/22 05:38:38;;;;;;;30.73;27.83;;;21.80;99.90;;;;;;4918130;29;20033;-93
2023/04/22 05:41:07;;;;;;;32.25;28.95;;;21.90;99.90;;;;;;4916001;29;20508;-91
2023/04/22 05:43:35;;;;;;;30.45;27.38;;;22.00;99.90;;;;;;4914659;29;20068;-92
2023/04/22 05:46:14;;;;;;;30.27;27.23;;;21.90;99.90;;;;;;4914664;29;20480;-94
2023/04/22 05:48:47;;;;;;;33.28;27.42;;;22.00;99.90;;;;;;4913889;29;20036;-92
2023/04/22 05:51:32;;;;;;;28.98;26.00;;;21.30;99.90;;;;;;4912629;29;20406;-92
2023/04/22 05:53:59;;;;;;;30.13;27.02;;;20.90;99.90;;;;;;4914219;29;20040;-92
2023/04/22 05:56:26;;;;;;;29.83;26.73;;;20.60;99.90;;;;;;4914331;29;20028;-92
2023/04/22 05:58:52;;;;;;;29.38;26.30;;;20.60;99.90;;;;;;4914331;29;20035;-92
2023/04/22 06:01:23;;;;;;;29.48;26.58;;;20.70;99.90;;;;;;4913955;29;20056;-91
2023/04/22 06:04:01;;;;;;;27.70;25.02;;;20.70;99.90;;;;;;4914371;29;20036;-92
2023/04/22 06:06:30;;;;;;;28.23;25.42;;;20.50;99.90;;;;;;4914531;29;20033;-92
2023/04/22 06:08:57;;;;;;;27.42;24.73;;;20.70;99.90;;;;;;4914798;29;20029;-94
2023/04/22 06:11:23;;;;;;;28.75;25.83;;;20.70;99.90;;;;;;4914799;29;20044;-91
2023/04/22 06:13:58;;;;;;;28.05;25.17;;;20.90;99.90;;;;;;4914590;29;20483;-94
2023/04/22 06:16:37;;;;;;;28.25;25.33;;;20.20;99.90;;;;;;4915573;29;20043;-92
2023/04/22 06:19:06;;;;;;;26.77;24.00;;;20.10;99.90;;;;;;4914111;29;20036;-89
2023/04/22 06:21:38;;;;;;;28.73;25.17;;;20.10;99.90;;;;;;4914116;29;20033;-93
2023/04/22 06:24:09;;;;;;;27.35;24.60;;;20.10;99.90;;;;;;4915770;29;20052;-92
2023/04/22 06:26:42;;;;;;;25.00;22.48;;;19.90;99.90;;;;;;4915871;29;20035;-93
2023/04/22 06:29:37;;;;;;;23.85;21.60;;;19.30;99.90;;;;;;4919895;29;20028;-93
2023/04/22 06:32:18;;;;;;;23.23;20.75;;;18.60;99.90;;;;;;4930435;29;20047;-90
2023/04/22 06:34:47;;;;;;;21.75;19.50;;;18.70;99.90;;;;;;4916949;29;20123;-92
2023/04/22 06:37:14;;;;;;;23.05;20.58;;;18.30;99.90;;;;;;4932560;29;20032;-91
2023/04/22 06:39:44;;;;;;;21.98;19.27;;;18.30;99.90;;;;;;4919822;29;20032;-93
2023/04/22 06:42:42;;;;;;;21.23;18.73;;;18.30;99.90;;;;;;4952229;29;20028;-93
2023/04/22 13:47:29;;;;;;;22.52;20.63;;;21.30;99.90;;;;;;5748432;23;20459;-92
2023/04/22 13:49:56;;;;;;;22.90;20.75;;;21.20;99.90;;;;;;4977957;28;20122;-91
2023/04/22 13:52:28;;;;;;;22.00;20.05;;;20.90;99.90;;;;;;4961176;28;20035;-92
2023/04/22 13:54:55;;;;;;;21.60;19.73;;;20.80;99.90;;;;;;4960087;28;20061;-93
2023/04/22 13:57:24;;;;;;;21.20;19.13;;;20.80;99.90;;;;;;4952967;28;20082;-91
2023/04/22 13:59:55;;;;;;;21.20;19.40;;;21.00;99.90;;;;;;4940489;29;20042;-92
2023/04/22 14:02:21;;;;;;;21.75;20.10;;;21.30;99.90;;;;;;4939848;29;20059;-92
2023/04/22 14:04:48;;;;;;;21.13;19.42;;;21.10;99.90;;;;;;4939731;29;20480;-93
2023/04/22 14:07:14;;;;;;;21.25;19.70;;;20.90;99.90;;;;;;4939257;29;20043;-89
2023/04/22 14:09:41;;;;;;;21.08;19.48;;;20.90;99.90;;;;;;4939323;29;20114;-92
2023/04/22 14:12:10;;;;;;;20.92;19.45;;;21.00;99.90;;;;;;4940308;29;20042;-91
2023/04/22 14:14:36;;;;;;;20.65;19.25;;;21.10;99.90;;;;;;4950823;28;20027;-91
2023/04/22 14:17:03;;;;;;;21.50;19.92;;;21.10;99.90;;;;;;4958397;28;20035;-90
2023/04/22 14:19:30;;;;;;;21.65;19.80;;;21.10;99.90;;;;;;4958220;28;20108;-89
2023/04/22 14:21:57;;;;;;;21.48;19.90;;;21.00;99.90;;;;;;4958732;28;20023;-91
2023/04/22 14:24:24;;;;;;;21.08;19.48;;;20.90;99.90;;;;;;4958352;28;20031;-92
2023/04/22 14:26:51;;;;;;;20.88;19.27;;;20.90;99.90;;;;;;4958411;28;20031;-91
2023/04/22 14:29:18;;;;;;;21.17;19.80;;;21.00;99.90;;;;;;4958067;28;20066;-88
2023/04/22 14:31:45;;;;;;;21.75;19.95;;;20.80;99.90;;;;;;4958517;28;20089;-90
2023/04/22 14:34:12;;;;;;;21.55;20.05;;;20.90;99.90;;;;;;4958016;28;20543;-90
2023/04/22 14:36:38;;;;;;;22.85;20.55;;;21.00;99.90;;;;;;4958127;28;20081;-90
2023/04/22 14:39:05;;;;;;;21.70;20.30;;;21.00;99.90;;;;;;4958148;28;20399;-88
2023/04/22 14:41:31;;;;;;;21.73;20.13;;;20.90;99.90;;;;;;4958172;28;20034;-89
2023/04/22 14:43:58;;;;;;;22.35;20.75;;;20.90;99.90;;;;;;4974136;28;20031;-90
2023/04/22 14:46:24;;;;;;;21.20;19.80;;;21.00;99.90;;;;;;4958190;28;20121;-91
2023/04/22 14:48:54;;;;;;;22.52;20.90;;;21.20;99.90;;;;;;4958334;28;20051;-92
2023/04/22 14:51:21;;;;;;;22.70;20.92;;;21.20;99.90;;;;;;4958455;28;20027;-91
2023/04/22 14:53:48;;;;;;;21.90;20.20;;;20.90;99.90;;;;;;4958132;28;20391;-91
2023/04/22 14:56:14;;;;;;;22.30;20.70;;;21.00;99.90;;;;;;4958187;28;20027;-90
2023/04/22 14:58:42;;;;;;;22.10;20.40;;;21.00;99.90;;;;;;4954571;28;20400;-89
2023/04/22 15:01:08;;;;;;;22.00;20.33;;;20.90;99.90;;;;;;4939991;29;20063;-89
2023/04/22 15:03:35;;;;;;;22.67;20.90;;;20.80;99.90;;;;;;4936001;29;20032;-91
2023/04/22 15:06:02;;;;;;;22.67;20.85;;;20.80;99.90;;;;;;4936710;29;20027;-90
2023/04/22 15:08:28;;;;;;;21.70;20.10;;;20.90;99.90;;;;;;4936053;29;20655;-89
2023/04/22 15:10:55;;;;;;;21.83;20.33;;;20.90;99.90;;;;;;4935712;29;20035;-90
2023/04/22 15:13:22;;;;;;;21.98;20.08;;;21.00;99.90;;;;;;4935250;29;20466;-90
2023/04/22 15:15:49;;;;;;;21.15;19.67;;;20.70;99.90;;;;;;4935483;29;20536;-90
2023/04/22 15:18:18;;;;;;;21.60;19.90;;;20.80;99.90;;;;;;4935603;29;20032;-91
2023/04/22 15:20:44;;;;;;;22.05;20.25;;;20.50;99.90;;;;;;4935674;29;20035;-91
2023/04/22 15:23:11;;;;;;;21.63;19.92;;;20.60;99.90;;;;;;4938933;29;20028;-89
2023/04/22 15:25:38;;;;;;;21.90;20.13;;;20.50;99.90;;;;;;4939105;29;20062;-89
2023/04/22 15:28:05;;;;;;;21.90;19.77;;;20.20;99.90;;;;;;4939813;29;20028;-89
2023/04/22 15:30:31;;;;;;;21.55;19.83;;;20.10;99.90;;;;;;4939188;29;20481;-90
2023/04/22 15:32:58;;;;;;;22.10;20.25;;;20.00;99.90;;;;;;4938688;29;20103;-90
2023/04/22 15:35:25;;;;;;;21.10;19.48;;;20.00;99.90;;;;;;4938701;29;20032;-91
2023/04/22 15:37:53;;;;;;;19.80;18.50;;;20.00;99.90;;;;;;4938668;29;20023;-90
2023/04/22 15:40:19;;;;;;;20.45;18.90;;;20.10;99.90;;;;;;4938394;29;20039;-91
2023/04/22 15:42:46;;;;;;;21.55;19.52;;;20.10;99.90;;;;;;4938678;29;20039;-91
2023/04/22 15:45:12;;;;;;;20.70;19.10;;;20.00;99.90;;;;;;4938724;29;20019;-90
2023/04/22 15:47:40;;;;;;;21.23;19.10;;;19.70;99.90;;;;;;4924836;29;20097;-90
2023/04/22 15:50:09;;;;;;;21.02;19.15;;;19.70;99.90;;;;;;4957502;28;20031;-92
2023/04/22 15:52:36;;;;;;;20.30;18.55;;;19.70;99.90;;;;;;4957450;29;20042;-90
2023/04/22 15:55:04;;;;;;;20.83;19.10;;;19.90;99.90;;;;;;4957807;29;20023;-91
2023/04/22 15:57:33;;;;;;;21.65;19.73;;;19.80;99.90;;;;;;4957496;28;20031;-90
2023/04/22 16:00:07;;;;;;;20.58;18.75;;;19.60;99.90;;;;;;4957485;28;20028;-89
2023/04/22 16:02:42;;;;;;;21.55;19.85;;;19.50;99.90;;;;;;4957596;29;20035;-91
2023/04/22 16:05:10;;;;;;;22.65;20.65;;;19.20;99.90;;;;;;4958003;28;20087;-90
2023/04/22 16:07:40;;;;;;;22.52;20.70;;;19.20;99.90;;;;;;4957324;28;20028;-89
2023/04/22 16:10:07;;;;;;;22.88;20.92;;;19.00;99.90;;;;;;4957933;28;20031;-92
2023/04/22 16:12:34;;;;;;;22.63;20.73;;;18.80;99.90;;;;;;4962080;28;20054;-91
2023/04/22 16:15:01;;;;;;;22.00;20.40;;;18.70;99.90;;;;;;4957338;29;20032;-91
2023/04/22 16:17:28;;;;;;;22.92;20.65;;;18.70;99.90;;;;;;4957223;28;20500;-92
2023/04/22 16:19:55;;;;;;;22.95;20.95;;;18.80;99.90;;;;;;4957025;28;20113;-91
2023/04/22 16:22:22;;;;;;;22.48;20.50;;;18.80;99.90;;;;;;4957067;28;20035;-90
2023/04/22 16:24:48;;;;;;;22.98;20.60;;;18.50;99.90;;;;;;4957267;28;20499;-91
2023/04/22 16:27:17;;;;;;;22.58;20.83;;;18.50;99.90;;;;;;4957099;28;20580;-89
2023/04/22 16:29:44;;;;;;;22.73;20.70;;;18.50;99.90;;;;;;4956740;28;20027;-89
2023/04/22 16:32:10;;;;;;;24.10;21.70;;;18.40;99.90;;;;;;4956485;28;20039;-90
2023/04/22 16:34:37;;;;;;;24.08;21.60;;;18.20;99.90;;;;;;4956816;28;20121;-89
2023/04/22 16:37:04;;;;;;;24.90;22.25;;;18.00;99.90;;;;;;4957343;28;20392;-91
2023/04/22 16:39:31;;;;;;;22.90;20.90;;;17.90;99.90;;;;;;4958375;28;20031;-90
2023/04/22 16:41:58;;;;;;;23.55;21.50;;;17.90;99.90;;;;;;4957910;28;20361;-89
2023/04/22 16:44:25;;;;;;;22.17;20.38;;;17.90;99.90;;;;;;4957097;28;20090;-90
2023/04/22 16:46:52;;;;;;;23.02;21.13;;;17.80;99.90;;;;;;4957259;28;20500;-90
2023/04/22 16:49:19;;;;;;;23.23;21.23;;;17.80;99.90;;;;;;4956362;28;20043;-89
2023/04/22 16:51:45;;;;;;;25.27;21.35;;;17.70;99.90;;;;;;4957219;28;20031;-90
2023/04/22 16:54:12;;;;;;;23.42;21.48;;;17.70;99.90;;;;;;4972700;28;20026;-90
2023/04/22 16:56:38;;;;;;;22.55;20.60;;;17.70;99.90;;;;;;4959639;28;20086;-89
2023/04/22 16:59:05;;;;;;;22.63;20.92;;;17.60;99.90;;;;;;4959432;28;20101;-91
2023/04/22 17:01:31;;;;;;;25.13;22.75;;;17.50;99.90;;;;;;4959387;28;20037;-91
2023/04/22 17:04:01;;;;;;;23.77;21.70;;;17.50;99.90;;;;;;4959942;28;20038;-90
2023/04/22 17:06:31;;;;;;;24.17;21.75;;;17.30;99.90;;;;;;4959689;28;20023;-90
2023/04/22 17:08:58;;;;;;;24.27;21.48;;;17.20;99.90;;;;;;4959529;28;20034;-89
2023/04/22 17:11:25;;;;;;;24.27;21.88;;;17.10;99.90;;;;;;4959073;28;20041;-91
2023/04/22 17:13:51;;;;;;;23.60;21.70;;;17.10;99.90;;;;;;4959208;28;20029;-88
2023/04/22 17:16:18;;;;;;;22.42;20.48;;;17.00;99.90;;;;;;4959289;28;20439;-91
2023/04/22 17:18:45;;;;;;;23.33;21.08;;;16.90;99.90;;;;;;4955880;28;20027;-90
2023/04/22 17:21:12;;;;;;;23.15;20.83;;;16.80;99.90;;;;;;4955985;28;20071;-89
2023/04/22 17:23:39;;;;;;;22.38;20.60;;;16.70;99.90;;;;;;4956170;28;20023;-90
2023/04/22 17:26:05;;;;;;;34.25;22.85;;;16.70;99.90;;;;;;4955838;28;20081;-91
2023/04/22 17:28:32;;;;;;;25.23;22.55;;;16.60;99.90;;;;;;4955601;28;20035;-90
2023/04/22 17:30:58;;;;;;;23.63;21.25;;;16.50;99.90;;;;;;4955897;28;20027;-89
2023/04/22 17:33:25;;;;;;;22.85;20.52;;;16.50;99.90;;;;;;4955784;28;20407;-89
2023/04/22 17:35:52;;;;;;;23.00;20.23;;;16.40;99.90;;;;;;4959436;28;20034;-89
2023/04/22 17:38:18;;;;;;;22.33;19.67;;;16.30;99.90;;;;;;4956327;28;20027;-88
2023/04/22 17:40:45;;;;;;;21.52;18.83;;;16.30;99.90;;;;;;4955668;28;20031;-88
2023/04/22 17:43:12;;;;;;;30.38;24.70;;;16.20;99.90;;;;;;4955511;28;20038;-88
2023/04/22 17:45:39;;;;;;;21.02;18.63;;;16.20;99.90;;;;;;4955416;28;20051;-89
2023/04/22 17:48:05;;;;;;;25.75;18.42;;;16.20;99.90;;;;;;4955548;28;20051;-90
2023/04/22 17:50:32;;;;;;;25.00;19.00;;;16.10;99.90;;;;;;4939704;29;20054;-91
2023/04/22 17:52:59;;;;;;;23.65;17.67;;;16.00;99.90;;;;;;4955333;28;20042;-90
2023/04/22 17:55:25;;;;;;;20.48;18.13;;;16.00;99.90;;;;;;4955258;29;20023;-89
2023/04/22 17:57:52;;;;;;;21.80;16.38;;;15.90;99.90;;;;;;4939322;28;20039;-90
2023/04/22 18:00:18;;;;;;;21.83;17.52;;;15.90;99.90;;;;;;4955550;29;20110;-90
2023/04/22 18:02:45;;;;;;;21.38;17.60;;;16.00;99.90;;;;;;4955549;28;20399;-91
2023/04/22 18:05:14;;;;;;;18.92;17.02;;;15.90;99.90;;;;;;4957944;28;20051;-91
2023/04/22 18:07:41;;;;;;;20.20;17.27;;;15.90;99.90;;;;;;4955152;28;20035;-93
2023/04/22 18:10:08;;;;;;;22.27;17.13;;;15.80;99.90;;;;;;4954600;29;20027;-88
2023/04/22 18:12:35;;;;;;;20.73;17.00;;;15.80;99.90;;;;;;4955941;28;20097;-91
2023/04/22 18:15:03;;;;;;;23.60;17.15;;;15.70;99.90;;;;;;4955191;28;20032;-89
2023/04/22 18:17:30;;;;;;;20.05;17.17;;;15.70;99.90;;;;;;4955293;28;20062;-90
2023/04/22 18:19:57;;;;;;;23.20;18.00;;;15.60;99.90;;;;;;4955263;29;20046;-91
2023/04/22 18:22:24;;;;;;;21.58;16.73;;;15.60;99.90;;;;;;4955131;28;20031;-88
2023/04/22 18:24:51;;;;;;;21.92;17.10;;;15.60;99.90;;;;;;4954885;28;20034;-89
2023/04/22 18:27:18;;;;;;;20.95;15.68;;;15.60;99.90;;;;;;4955358;28;20032;-88
2023/04/22 18:29:46;;;;;;;30.42;16.10;;;15.60;99.90;;;;;;4955598;28;20388;-91
2023/04/22 18:32:15;;;;;;;18.77;15.50;;;15.60;99.90;;;;;;4955025;29;20054;-88
2023/04/22 18:34:42;;;;;;;25.35;15.18;;;15.60;99.90;;;;;;4955423;28;20082;-91
2023/04/22 18:37:08;;;;;;;22.42;14.55;;;15.50;99.90;;;;;;4960455;28;20031;-89
2023/04/22 18:39:35;;;;;;;23.20;14.55;;;15.50;99.90;;;;;;4953545;28;20031;-92
2023/04/22 18:42:02;;;;;;;26.73;14.35;;;15.40;99.90;;;;;;4935840;29;20486;-90
2023/04/22 18:44:28;;;;;;;25.70;13.60;;;15.40;99.90;;;;;;4935890;29;20103;-91
2023/04/22 18:46:55;;;;;;;29.75;14.85;;;15.30;99.90;;;;;;4935897;29;20038;-91
2023/04/22 18:49:21;;;;;;;24.55;15.45;;;15.30;99.90;;;;;;4936213;29;20047;-89
2023/04/22 18:51:48;;;;;;;27.42;14.93;;;15.30;99.90;;;;;;4952739;29;20118;-90
2023/04/22 18:54:15;;;;;;;30.42;15.65;;;15.30;99.90;;;;;;4938735;29;20043;-89
2023/04/22 18:56:41;;;;;;;28.00;14.48;;;15.30;99.90;;;;;;4953671;28;20031;-92
2023/04/22 18:59:08;;;;;;;28.42;14.77;;;15.30;99.90;;;;;;4943509;29;20445;-90
2023/04/22 19:01:35;;;;;;;27.42;15.45;;;15.20;99.90;;;;;;4962047;28;20058;-90
2023/04/22 19:04:02;;;;;;;23.95;14.43;;;15.20;99.90;;;;;;4961893;28;20035;-89
2023/04/22 19:06:29;;;;;;;31.55;15.52;;;15.20;99.90;;;;;;4961484;28;20027;-92
2023/04/22 19:08:56;;;;;;;24.05;14.43;;;15.10;99.90;;;;;;4946902;28;20032;-91
2023/04/22 19:11:23;;;;;;;30.58;14.90;;;15.10;99.90;;;;;;4958270;28;20035;-89
2023/04/22 19:13:51;;;;;;;33.90;15.98;;;15.00;99.90;;;;;;4974289;28;20039;-89
2023/04/22 19:16:20;;;;;;;33.80;17.52;;;15.00;99.90;;;;;;4974188;28;20031;-90
2023/04/22 19:18:47;;;;;;;40.65;18.98;;;15.00;99.90;;;;;;4958110;29;20031;-91
2023/04/22 19:21:14;;;;;;;36.80;17.00;;;14.90;99.90;;;;;;4948782;28;20091;-89
2023/04/22 19:23:44;;;;;;;33.13;16.33;;;14.90;99.90;;;;;;4941245;29;20035;-89
2023/04/22 19:26:13;;;;;;;39.05;19.73;;;14.90;99.90;;;;;;4957654;29;20118;-90
2023/04/22 19:28:45;;;;;;;37.05;17.83;;;14.90;99.90;;;;;;4941893;29;20023;-89
2023/04/22 19:31:14;;;;;;;34.00;18.67;;;14.90;99.90;;;;;;4952820;29;20031;-92
2023/04/22 19:33:40;;;;;;;38.35;19.95;;;14.90;99.90;;;;;;4952488;28;20059;-90
2023/04/22 19:36:10;;;;;;;40.88;19.38;;;14.90;99.90;;;;;;4930658;29;20508;-91
2023/04/22 19:38:37;;;;;;;40.83;18.65;;;14.90;99.90;;;;;;4953440;29;20488;-90
2023/04/22 19:41:03;;;;;;;36.65;19.63;;;14.90;99.90;;;;;;4957725;28;20035;-90
2023/04/22 19:43:30;;;;;;;34.85;19.08;;;14.90;99.90;;;;;;4951496;28;20496;-90